Terminal Aerodrome Forecast
Issued by NWS Cleveland, OH

Home | Current Version | Previous Version | Text Only | Print | Product List | Glossary Off
Versions: 1 2 3 4 5 6 7 8 9 10 11 12 13 14 15 16

000
FTUS41 KCLE 082200 AAA
TAFCAK
TAF AMD
KCAK 082202Z 0822/0918 27014G22KT P6SM BKN050
      TEMPO 0822/0824 5SM -SHRA OVC025
     FM090000 25010G18KT P6SM SCT025 OVC035
     FM090200 26008KT P6SM SCT030 BKN200
     FM090900 26005KT 5SM BR SCT030
     FM091500 28008KT P6SM BKN030 OVC040=

USA.gov is the U.S. government's official web portal to all federal, state and local government web resources and services.